sensor_id;sensor_type;location;lat;lon;timestamp;temperature;humidity
4223;DHT22;2125;51.436;14.138;2022-08-19T00:01:36;24.30;77.40
4223;DHT22;2125;51.436;14.138;2022-08-19T00:04:05;24.20;77.50
4223;DHT22;2125;51.436;14.138;2022-08-19T00:06:33;24.30;77.30
4223;DHT22;2125;51.436;14.138;2022-08-19T00:09:03;24.30;77.50
4223;DHT22;2125;51.436;14.138;2022-08-19T00:11:30;24.30;77.40
4223;DHT22;2125;51.436;14.138;2022-08-19T00:13:57;24.20;77.50
4223;DHT22;2125;51.436;14.138;2022-08-19T00:16:25;24.20;77.60
4223;DHT22;2125;51.436;14.138;2022-08-19T00:18:52;24.20;77.90
4223;DHT22;2125;51.436;14.138;2022-08-19T00:21:21;24.20;77.80
4223;DHT22;2125;51.436;14.138;2022-08-19T00:23:48;24.10;78.30
4223;DHT22;2125;51.436;14.138;2022-08-19T00:26:15;24.00;78.40
4223;DHT22;2125;51.436;14.138;2022-08-19T00:28:41;24.00;78.50
4223;DHT22;2125;51.436;14.138;2022-08-19T00:31:09;24.00;78.90
4223;DHT22;2125;51.436;14.138;2022-08-19T00:33:36;24.00;78.70
4223;DHT22;2125;51.436;14.138;2022-08-19T00:36:06;24.00;79.20
4223;DHT22;2125;51.436;14.138;2022-08-19T00:38:36;23.90;79.10
4223;DHT22;2125;51.436;14.138;2022-08-19T00:41:03;24.00;78.90
4223;DHT22;2125;51.436;14.138;2022-08-19T00:43:30;23.90;78.90
4223;DHT22;2125;51.436;14.138;2022-08-19T00:45:57;24.00;78.80
4223;DHT22;2125;51.436;14.138;2022-08-19T00:48:24;23.90;78.70
4223;DHT22;2125;51.436;14.138;2022-08-19T00:50:52;23.90;78.90
4223;DHT22;2125;51.436;14.138;2022-08-19T00:53:23;23.80;79.20
4223;DHT22;2125;51.436;14.138;2022-08-19T00:55:56;23.80;79.40
4223;DHT22;2125;51.436;14.138;2022-08-19T00:58:31;23.60;79.90
4223;DHT22;2125;51.436;14.138;2022-08-19T01:00:59;23.40;80.30
4223;DHT22;2125;51.436;14.138;2022-08-19T01:03:26;23.20;80.70
4223;DHT22;2125;51.436;14.138;2022-08-19T01:05:54;23.10;81.00
4223;DHT22;2125;51.436;14.138;2022-08-19T01:08:22;23.00;81.20
4223;DHT22;2125;51.436;14.138;2022-08-19T01:10:56;22.90;81.40
4223;DHT22;2125;51.436;14.138;2022-08-19T01:13:26;22.90;81.60
4223;DHT22;2125;51.436;14.138;2022-08-19T01:15:57;22.80;81.80
4223;DHT22;2125;51.436;14.138;2022-08-19T01:18:27;22.70;82.00
4223;DHT22;2125;51.436;14.138;2022-08-19T01:20:56;22.60;82.30
4223;DHT22;2125;51.436;14.138;2022-08-19T01:23:25;22.50;82.50
4223;DHT22;2125;51.436;14.138;2022-08-19T01:26:09;22.40;82.70
4223;DHT22;2125;51.436;14.138;2022-08-19T01:28:36;22.30;82.70
4223;DHT22;2125;51.436;14.138;2022-08-19T01:31:05;22.20;83.00
4223;DHT22;2125;51.436;14.138;2022-08-19T01:33:31;22.20;83.20
4223;DHT22;2125;51.436;14.138;2022-08-19T01:36:05;22.20;83.50
4223;DHT22;2125;51.436;14.138;2022-08-19T01:38:35;22.00;83.60
4223;DHT22;2125;51.436;14.138;2022-08-19T01:41:02;21.90;83.80
4223;DHT22;2125;51.436;14.138;2022-08-19T01:43:29;21.80;84.10
4223;DHT22;2125;51.436;14.138;2022-08-19T01:45:55;21.80;84.20
4223;DHT22;2125;51.436;14.138;2022-08-19T01:48:22;21.70;84.40
4223;DHT22;2125;51.436;14.138;2022-08-19T01:50:49;21.70;84.40
4223;DHT22;2125;51.436;14.138;2022-08-19T01:53:16;21.70;84.50
4223;DHT22;2125;51.436;14.138;2022-08-19T01:55:43;21.80;84.30
4223;DHT22;2125;51.436;14.138;2022-08-19T01:58:15;21.80;84.20
4223;DHT22;2125;51.436;14.138;2022-08-19T02:00:44;21.70;84.30
4223;DHT22;2125;51.436;14.138;2022-08-19T02:03:11;21.60;84.30
4223;DHT22;2125;51.436;14.138;2022-08-19T02:05:39;21.60;84.40
4223;DHT22;2125;51.436;14.138;2022-08-19T02:08:07;21.60;84.40
4223;DHT22;2125;51.436;14.138;2022-08-19T02:10:37;21.60;84.50
4223;DHT22;2125;51.436;14.138;2022-08-19T02:13:06;21.60;84.60
4223;DHT22;2125;51.436;14.138;2022-08-19T02:15:33;21.50;84.60
4223;DHT22;2125;51.436;14.138;2022-08-19T02:17:59;21.50;84.60
4223;DHT22;2125;51.436;14.138;2022-08-19T02:20:26;21.40;84.80
4223;DHT22;2125;51.436;14.138;2022-08-19T02:22:53;21.40;84.70
4223;DHT22;2125;51.436;14.138;2022-08-19T02:25:19;21.30;84.70
4223;DHT22;2125;51.436;14.138;2022-08-19T02:27:46;21.30;84.80
4223;DHT22;2125;51.436;14.138;2022-08-19T02:30:16;21.20;84.80
4223;DHT22;2125;51.436;14.138;2022-08-19T02:32:43;21.20;84.90
4223;DHT22;2125;51.436;14.138;2022-08-19T02:35:10;21.20;85.10
4223;DHT22;2125;51.436;14.138;2022-08-19T02:37:36;21.30;85.10
4223;DHT22;2125;51.436;14.138;2022-08-19T02:40:20;21.40;85.20
4223;DHT22;2125;51.436;14.138;2022-08-19T02:42:47;21.40;85.10
4223;DHT22;2125;51.436;14.138;2022-08-19T02:45:15;21.40;85.20
4223;DHT22;2125;51.436;14.138;2022-08-19T02:47:42;21.50;85.10
4223;DHT22;2125;51.436;14.138;2022-08-19T02:50:09;21.50;85.00
4223;DHT22;2125;51.436;14.138;2022-08-19T02:52:36;21.50;85.00
4223;DHT22;2125;51.436;14.138;2022-08-19T02:55:03;21.60;85.00
4223;DHT22;2125;51.436;14.138;2022-08-19T02:57:31;21.60;85.00
4223;DHT22;2125;51.436;14.138;2022-08-19T02:59:58;21.50;85.10
4223;DHT22;2125;51.436;14.138;2022-08-19T03:02:26;21.50;85.10
4223;DHT22;2125;51.436;14.138;2022-08-19T03:04:52;21.40;85.20
4223;DHT22;2125;51.436;14.138;2022-08-19T03:07:19;21.30;85.30
4223;DHT22;2125;51.436;14.138;2022-08-19T03:09:46;21.30;85.40
4223;DHT22;2125;51.436;14.138;2022-08-19T03:12:13;21.20;85.50
4223;DHT22;2125;51.436;14.138;2022-08-19T03:14:40;21.20;85.50
4223;DHT22;2125;51.436;14.138;2022-08-19T03:17:07;21.20;85.60
4223;DHT22;2125;51.436;14.138;2022-08-19T03:19:35;21.20;85.70
4223;DHT22;2125;51.436;14.138;2022-08-19T03:22:01;21.20;85.70
4223;DHT22;2125;51.436;14.138;2022-08-19T03:24:30;21.20;85.70
4223;DHT22;2125;51.436;14.138;2022-08-19T03:26:57;21.20;85.70
4223;DHT22;2125;51.436;14.138;2022-08-19T03:29:25;21.20;85.70
4223;DHT22;2125;51.436;14.138;2022-08-19T03:31:52;21.30;85.80
4223;DHT22;2125;51.436;14.138;2022-08-19T03:34:22;21.30;85.80
4223;DHT22;2125;51.436;14.138;2022-08-19T03:36:54;21.40;85.70
4223;DHT22;2125;51.436;14.138;2022-08-19T03:39:22;21.50;85.60
4223;DHT22;2125;51.436;14.138;2022-08-19T03:41:50;21.40;85.60
4223;DHT22;2125;51.436;14.138;2022-08-19T03:44:18;21.50;85.50
4223;DHT22;2125;51.436;14.138;2022-08-19T03:46:47;21.50;85.50
4223;DHT22;2125;51.436;14.138;2022-08-19T03:49:15;21.50;85.50
4223;DHT22;2125;51.436;14.138;2022-08-19T03:51:42;21.40;85.60
4223;DHT22;2125;51.436;14.138;2022-08-19T03:54:13;21.40;85.70
4223;DHT22;2125;51.436;14.138;2022-08-19T03:56:41;21.40;85.70
4223;DHT22;2125;51.436;14.138;2022-08-19T03:59:11;21.40;85.80
4223;DHT22;2125;51.436;14.138;2022-08-19T04:01:38;21.50;85.70
4223;DHT22;2125;51.436;14.138;2022-08-19T04:04:05;21.50;85.60
4223;DHT22;2125;51.436;14.138;2022-08-19T04:06:34;21.50;85.60
4223;DHT22;2125;51.436;14.138;2022-08-19T04:09:04;21.60;85.50
4223;DHT22;2125;51.436;14.138;2022-08-19T04:11:35;21.60;85.50
4223;DHT22;2125;51.436;14.138;2022-08-19T04:14:04;21.60;85.40
4223;DHT22;2125;51.436;14.138;2022-08-19T04:16:31;21.70;85.50
4223;DHT22;2125;51.436;14.138;2022-08-19T04:19:00;21.70;85.50
4223;DHT22;2125;51.436;14.138;2022-08-19T04:21:28;21.80;85.40
4223;DHT22;2125;51.436;14.138;2022-08-19T04:23:56;21.80;85.40
4223;DHT22;2125;51.436;14.138;2022-08-19T04:26:24;21.70;85.40
4223;DHT22;2125;51.436;14.138;2022-08-19T04:28:54;21.80;85.50
4223;DHT22;2125;51.436;14.138;2022-08-19T04:31:22;21.80;85.40
4223;DHT22;2125;51.436;14.138;2022-08-19T04:33:51;21.80;85.40
4223;DHT22;2125;51.436;14.138;2022-08-19T04:36:20;21.80;85.40
4223;DHT22;2125;51.436;14.138;2022-08-19T04:38:47;21.80;85.40
4223;DHT22;2125;51.436;14.138;2022-08-19T04:41:14;21.70;85.40
4223;DHT22;2125;51.436;14.138;2022-08-19T04:44:00;21.70;85.50
4223;DHT22;2125;51.436;14.138;2022-08-19T04:46:28;21.80;85.50
4223;DHT22;2125;51.436;14.138;2022-08-19T04:48:55;21.90;85.50
4223;DHT22;2125;51.436;14.138;2022-08-19T04:51:23;22.00;85.40
4223;DHT22;2125;51.436;14.138;2022-08-19T04:53:50;22.00;85.40
4223;DHT22;2125;51.436;14.138;2022-08-19T04:56:18;22.10;85.30
4223;DHT22;2125;51.436;14.138;2022-08-19T04:58:49;22.20;85.20
4223;DHT22;2125;51.436;14.138;2022-08-19T05:01:21;22.20;85.10
4223;DHT22;2125;51.436;14.138;2022-08-19T05:03:49;22.20;85.00
4223;DHT22;2125;51.436;14.138;2022-08-19T05:06:17;22.30;85.00
4223;DHT22;2125;51.436;14.138;2022-08-19T05:08:45;22.20;85.00
4223;DHT22;2125;51.436;14.138;2022-08-19T05:11:15;22.10;85.20
4223;DHT22;2125;51.436;14.138;2022-08-19T05:13:43;22.10;85.20
4223;DHT22;2125;51.436;14.138;2022-08-19T05:16:11;22.10;85.20
4223;DHT22;2125;51.436;14.138;2022-08-19T05:18:40;22.20;85.20
4223;DHT22;2125;51.436;14.138;2022-08-19T05:21:25;22.20;85.00
4223;DHT22;2125;51.436;14.138;2022-08-19T05:24:11;22.30;85.00
4223;DHT22;2125;51.436;14.138;2022-08-19T05:26:40;22.30;84.80
4223;DHT22;2125;51.436;14.138;2022-08-19T05:29:08;22.40;84.80
4223;DHT22;2125;51.436;14.138;2022-08-19T05:31:36;22.40;84.70
4223;DHT22;2125;51.436;14.138;2022-08-19T05:34:05;22.40;84.80
4223;DHT22;2125;51.436;14.138;2022-08-19T05:36:34;22.40;84.90
4223;DHT22;2125;51.436;14.138;2022-08-19T05:39:02;22.40;85.00
4223;DHT22;2125;51.436;14.138;2022-08-19T05:41:29;22.40;85.00
4223;DHT22;2125;51.436;14.138;2022-08-19T05:43:56;22.40;85.10
4223;DHT22;2125;51.436;14.138;2022-08-19T05:46:23;22.40;85.10
4223;DHT22;2125;51.436;14.138;2022-08-19T05:48:50;22.30;85.10
4223;DHT22;2125;51.436;14.138;2022-08-19T05:51:18;22.30;85.10
4223;DHT22;2125;51.436;14.138;2022-08-19T05:53:44;22.30;85.20
4223;DHT22;2125;51.436;14.138;2022-08-19T05:56:13;22.30;85.20
4223;DHT22;2125;51.436;14.138;2022-08-19T05:58:42;22.30;85.20
4223;DHT22;2125;51.436;14.138;2022-08-19T06:01:11;22.30;85.20
4223;DHT22;2125;51.436;14.138;2022-08-19T06:03:38;22.20;85.30
4223;DHT22;2125;51.436;14.138;2022-08-19T06:06:05;22.20;85.50
4223;DHT22;2125;51.436;14.138;2022-08-19T06:08:34;22.10;85.50
4223;DHT22;2125;51.436;14.138;2022-08-19T06:11:19;22.10;85.50
4223;DHT22;2125;51.436;14.138;2022-08-19T06:13:48;22.10;85.50
4223;DHT22;2125;51.436;14.138;2022-08-19T06:16:16;22.10;85.40
4223;DHT22;2125;51.436;14.138;2022-08-19T06:18:48;22.10;85.40
4223;DHT22;2125;51.436;14.138;2022-08-19T06:21:17;22.20;85.50
4223;DHT22;2125;51.436;14.138;2022-08-19T06:23:45;22.20;85.50
4223;DHT22;2125;51.436;14.138;2022-08-19T06:26:12;22.10;85.40
4223;DHT22;2125;51.436;14.138;2022-08-19T06:28:39;22.10;85.40
4223;DHT22;2125;51.436;14.138;2022-08-19T06:31:08;22.00;85.40
4223;DHT22;2125;51.436;14.138;2022-08-19T06:33:35;22.00;85.50
4223;DHT22;2125;51.436;14.138;2022-08-19T06:36:03;22.00;85.50
4223;DHT22;2125;51.436;14.138;2022-08-19T06:38:29;22.00;85.50
4223;DHT22;2125;51.436;14.138;2022-08-19T06:41:01;22.00;85.60
4223;DHT22;2125;51.436;14.138;2022-08-19T06:43:28;22.00;85.60
4223;DHT22;2125;51.436;14.138;2022-08-19T06:45:55;21.90;85.60
4223;DHT22;2125;51.436;14.138;2022-08-19T06:48:21;21.90;85.60
4223;DHT22;2125;51.436;14.138;2022-08-19T06:50:48;21.90;85.60
4223;DHT22;2125;51.436;14.138;2022-08-19T06:53:16;21.90;85.60
4223;DHT22;2125;51.436;14.138;2022-08-19T06:55:44;21.80;85.80
4223;DHT22;2125;51.436;14.138;2022-08-19T06:58:12;21.60;85.80
4223;DHT22;2125;51.436;14.138;2022-08-19T07:00:39;21.50;85.90
4223;DHT22;2125;51.436;14.138;2022-08-19T07:03:06;21.50;85.90
4223;DHT22;2125;51.436;14.138;2022-08-19T07:05:32;21.50;85.90
4223;DHT22;2125;51.436;14.138;2022-08-19T07:07:59;21.40;86.00
4223;DHT22;2125;51.436;14.138;2022-08-19T07:10:26;21.30;86.10
4223;DHT22;2125;51.436;14.138;2022-08-19T07:12:52;21.30;86.00
4223;DHT22;2125;51.436;14.138;2022-08-19T07:15:20;21.30;86.00
4223;DHT22;2125;51.436;14.138;2022-08-19T07:17:48;21.30;86.00
4223;DHT22;2125;51.436;14.138;2022-08-19T07:20:16;21.20;86.00
4223;DHT22;2125;51.436;14.138;2022-08-19T07:22:43;21.10;86.00
4223;DHT22;2125;51.436;14.138;2022-08-19T07:25:11;21.10;86.20
4223;DHT22;2125;51.436;14.138;2022-08-19T07:27:38;21.00;86.10
4223;DHT22;2125;51.436;14.138;2022-08-19T07:30:06;21.00;86.10
4223;DHT22;2125;51.436;14.138;2022-08-19T07:32:34;20.90;86.10
4223;DHT22;2125;51.436;14.138;2022-08-19T07:35:00;21.00;86.10
4223;DHT22;2125;51.436;14.138;2022-08-19T07:37:28;21.00;86.10
4223;DHT22;2125;51.436;14.138;2022-08-19T07:39:55;20.90;86.00
4223;DHT22;2125;51.436;14.138;2022-08-19T07:42:21;20.80;86.00
4223;DHT22;2125;51.436;14.138;2022-08-19T07:44:48;20.80;86.10
4223;DHT22;2125;51.436;14.138;2022-08-19T07:47:15;20.80;86.00
4223;DHT22;2125;51.436;14.138;2022-08-19T07:49:44;20.90;86.00
4223;DHT22;2125;51.436;14.138;2022-08-19T07:52:10;20.80;86.00
4223;DHT22;2125;51.436;14.138;2022-08-19T07:54:38;20.90;86.00
4223;DHT22;2125;51.436;14.138;2022-08-19T07:57:05;21.00;86.00
4223;DHT22;2125;51.436;14.138;2022-08-19T07:59:33;20.90;85.90
4223;DHT22;2125;51.436;14.138;2022-08-19T08:02:00;20.90;85.90
4223;DHT22;2125;51.436;14.138;2022-08-19T08:04:28;21.00;85.80
4223;DHT22;2125;51.436;14.138;2022-08-19T08:07:14;21.10;85.80
4223;DHT22;2125;51.436;14.138;2022-08-19T08:09:59;21.20;85.80
4223;DHT22;2125;51.436;14.138;2022-08-19T08:12:28;21.10;85.70
4223;DHT22;2125;51.436;14.138;2022-08-19T08:14:59;21.20;85.70
4223;DHT22;2125;51.436;14.138;2022-08-19T08:17:28;21.20;85.70
4223;DHT22;2125;51.436;14.138;2022-08-19T08:19:55;21.30;85.70
4223;DHT22;2125;51.436;14.138;2022-08-19T08:22:24;21.30;85.60
4223;DHT22;2125;51.436;14.138;2022-08-19T08:25:10;21.40;85.60
4223;DHT22;2125;51.436;14.138;2022-08-19T08:27:38;21.50;85.60
4223;DHT22;2125;51.436;14.138;2022-08-19T08:30:07;21.50;85.40
4223;DHT22;2125;51.436;14.138;2022-08-19T08:32:35;21.60;85.50
4223;DHT22;2125;51.436;14.138;2022-08-19T08:35:02;21.80;85.50
4223;DHT22;2125;51.436;14.138;2022-08-19T08:37:30;21.80;85.40
4223;DHT22;2125;51.436;14.138;2022-08-19T08:39:57;21.80;85.40
4223;DHT22;2125;51.436;14.138;2022-08-19T08:42:28;21.80;85.40
4223;DHT22;2125;51.436;14.138;2022-08-19T08:44:59;21.80;85.40
4223;DHT22;2125;51.436;14.138;2022-08-19T08:47:30;21.90;85.50
4223;DHT22;2125;51.436;14.138;2022-08-19T08:50:02;22.00;85.50
4223;DHT22;2125;51.436;14.138;2022-08-19T08:52:32;22.00;85.40
4223;DHT22;2125;51.436;14.138;2022-08-19T08:55:07;22.10;85.30
4223;DHT22;2125;51.436;14.138;2022-08-19T08:57:36;22.10;85.40
4223;DHT22;2125;51.436;14.138;2022-08-19T09:00:07;22.10;85.40
4223;DHT22;2125;51.436;14.138;2022-08-19T09:02:34;22.20;85.30
4223;DHT22;2125;51.436;14.138;2022-08-19T09:05:01;22.30;85.30
4223;DHT22;2125;51.436;14.138;2022-08-19T09:07:41;22.30;85.30
4223;DHT22;2125;51.436;14.138;2022-08-19T09:10:15;22.30;85.20
4223;DHT22;2125;51.436;14.138;2022-08-19T09:12:53;22.40;85.20
4223;DHT22;2125;51.436;14.138;2022-08-19T09:15:27;22.40;85.20
4223;DHT22;2125;51.436;14.138;2022-08-19T09:17:54;22.40;85.20
4223;DHT22;2125;51.436;14.138;2022-08-19T09:20:25;22.40;85.40
4223;DHT22;2125;51.436;14.138;2022-08-19T09:22:53;22.40;85.30
4223;DHT22;2125;51.436;14.138;2022-08-19T09:25:21;22.50;85.30
4223;DHT22;2125;51.436;14.138;2022-08-19T09:27:49;22.50;85.30
4223;DHT22;2125;51.436;14.138;2022-08-19T09:30:19;22.40;85.30
4223;DHT22;2125;51.436;14.138;2022-08-19T09:32:47;22.30;85.50
4223;DHT22;2125;51.436;14.138;2022-08-19T09:35:14;22.20;85.40
4223;DHT22;2125;51.436;14.138;2022-08-19T09:37:41;22.30;85.50
4223;DHT22;2125;51.436;14.138;2022-08-19T09:40:11;22.30;85.50
4223;DHT22;2125;51.436;14.138;2022-08-19T09:42:38;22.30;85.50
4223;DHT22;2125;51.436;14.138;2022-08-19T09:45:06;22.30;85.50
4223;DHT22;2125;51.436;14.138;2022-08-19T09:47:32;22.30;85.40
4223;DHT22;2125;51.436;14.138;2022-08-19T09:50:01;22.20;85.40
4223;DHT22;2125;51.436;14.138;2022-08-19T09:52:28;22.30;85.50
4223;DHT22;2125;51.436;14.138;2022-08-19T09:54:54;22.40;85.30
4223;DHT22;2125;51.436;14.138;2022-08-19T09:57:22;22.30;85.40
4223;DHT22;2125;51.436;14.138;2022-08-19T09:59:49;22.30;85.40
4223;DHT22;2125;51.436;14.138;2022-08-19T10:02:15;22.30;85.30
4223;DHT22;2125;51.436;14.138;2022-08-19T10:04:43;22.50;85.40
4223;DHT22;2125;51.436;14.138;2022-08-19T10:07:29;22.50;85.20
4223;DHT22;2125;51.436;14.138;2022-08-19T10:09:56;22.80;85.20
4223;DHT22;2125;51.436;14.138;2022-08-19T10:12:24;23.00;84.50
4223;DHT22;2125;51.436;14.138;2022-08-19T10:14:51;23.20;84.40
4223;DHT22;2125;51.436;14.138;2022-08-19T10:17:19;23.60;84.10
4223;DHT22;2125;51.436;14.138;2022-08-19T10:19:46;24.00;83.70
4223;DHT22;2125;51.436;14.138;2022-08-19T10:22:15;24.40;82.80
4223;DHT22;2125;51.436;14.138;2022-08-19T10:24:45;24.40;81.90
4223;DHT22;2125;51.436;14.138;2022-08-19T10:27:12;24.50;81.80
4223;DHT22;2125;51.436;14.138;2022-08-19T10:29:42;24.70;81.00
4223;DHT22;2125;51.436;14.138;2022-08-19T10:32:09;24.80;80.80
4223;DHT22;2125;51.436;14.138;2022-08-19T10:34:36;25.00;81.30
4223;DHT22;2125;51.436;14.138;2022-08-19T10:37:04;25.10;80.30
4223;DHT22;2125;51.436;14.138;2022-08-19T10:39:33;25.10;79.80
4223;DHT22;2125;51.436;14.138;2022-08-19T10:42:04;25.10;80.00
4223;DHT22;2125;51.436;14.138;2022-08-19T10:44:32;25.10;79.90
4223;DHT22;2125;51.436;14.138;2022-08-19T10:47:02;25.20;80.80
4223;DHT22;2125;51.436;14.138;2022-08-19T10:49:29;25.40;79.10
4223;DHT22;2125;51.436;14.138;2022-08-19T10:51:57;25.40;79.50
4223;DHT22;2125;51.436;14.138;2022-08-19T10:54:41;25.10;79.60
4223;DHT22;2125;51.436;14.138;2022-08-19T10:57:33;24.90;80.10
4223;DHT22;2125;51.436;14.138;2022-08-19T11:00:00;25.10;80.40
4223;DHT22;2125;51.436;14.138;2022-08-19T11:02:28;25.20;79.80
4223;DHT22;2125;51.436;14.138;2022-08-19T11:04:54;25.30;79.60
4223;DHT22;2125;51.436;14.138;2022-08-19T11:07:21;25.40;79.00
4223;DHT22;2125;51.436;14.138;2022-08-19T11:09:50;25.30;78.80
4223;DHT22;2125;51.436;14.138;2022-08-19T11:12:17;25.50;79.10
4223;DHT22;2125;51.436;14.138;2022-08-19T11:14:44;25.50;79.00
4223;DHT22;2125;51.436;14.138;2022-08-19T11:17:11;25.60;78.90
4223;DHT22;2125;51.436;14.138;2022-08-19T11:19:40;25.70;79.00
4223;DHT22;2125;51.436;14.138;2022-08-19T11:22:08;25.80;77.90
4223;DHT22;2125;51.436;14.138;2022-08-19T11:24:35;25.70;78.40
4223;DHT22;2125;51.436;14.138;2022-08-19T11:27:08;25.60;78.20
4223;DHT22;2125;51.436;14.138;2022-08-19T11:29:37;25.40;78.90
4223;DHT22;2125;51.436;14.138;2022-08-19T11:32:07;25.50;79.00
4223;DHT22;2125;51.436;14.138;2022-08-19T11:34:34;25.70;78.50
4223;DHT22;2125;51.436;14.138;2022-08-19T11:37:03;25.50;77.20
4223;DHT22;2125;51.436;14.138;2022-08-19T11:39:33;25.50;78.40
4223;DHT22;2125;51.436;14.138;2022-08-19T11:42:01;25.50;77.70
4223;DHT22;2125;51.436;14.138;2022-08-19T11:44:28;25.40;77.30
4223;DHT22;2125;51.436;14.138;2022-08-19T11:46:56;25.00;78.40
4223;DHT22;2125;51.436;14.138;2022-08-19T11:49:23;25.00;79.00
4223;DHT22;2125;51.436;14.138;2022-08-19T11:51:49;25.00;78.50
4223;DHT22;2125;51.436;14.138;2022-08-19T11:54:17;24.90;79.00
4223;DHT22;2125;51.436;14.138;2022-08-19T11:56:44;24.80;79.10
4223;DHT22;2125;51.436;14.138;2022-08-19T11:59:13;24.70;79.50
4223;DHT22;2125;51.436;14.138;2022-08-19T12:01:39;24.60;80.10
4223;DHT22;2125;51.436;14.138;2022-08-19T12:04:09;24.60;80.30
4223;DHT22;2125;51.436;14.138;2022-08-19T12:06:38;24.80;80.20
4223;DHT22;2125;51.436;14.138;2022-08-19T12:09:06;24.70;79.90
4223;DHT22;2125;51.436;14.138;2022-08-19T12:11:35;24.60;80.50
4223;DHT22;2125;51.436;14.138;2022-08-19T12:14:02;24.50;80.80
4223;DHT22;2125;51.436;14.138;2022-08-19T12:16:30;24.40;81.30
4223;DHT22;2125;51.436;14.138;2022-08-19T12:18:57;24.40;80.90
4223;DHT22;2125;51.436;14.138;2022-08-19T12:21:28;24.20;80.90
4223;DHT22;2125;51.436;14.138;2022-08-19T12:23:57;24.10;80.80
4223;DHT22;2125;51.436;14.138;2022-08-19T12:26:24;23.90;81.40
4223;DHT22;2125;51.436;14.138;2022-08-19T12:28:53;23.70;81.70
4223;DHT22;2125;51.436;14.138;2022-08-19T12:31:20;23.60;82.30
4223;DHT22;2125;51.436;14.138;2022-08-19T12:33:46;23.60;82.70
4223;DHT22;2125;51.436;14.138;2022-08-19T12:36:15;23.70;82.50
4223;DHT22;2125;51.436;14.138;2022-08-19T12:38:43;23.90;82.20
4223;DHT22;2125;51.436;14.138;2022-08-19T12:41:11;24.00;81.90
4223;DHT22;2125;51.436;14.138;2022-08-19T12:43:38;24.20;81.70
4223;DHT22;2125;51.436;14.138;2022-08-19T12:46:07;24.20;81.40
4223;DHT22;2125;51.436;14.138;2022-08-19T12:48:34;24.30;80.70
4223;DHT22;2125;51.436;14.138;2022-08-19T12:51:05;24.30;81.00
4223;DHT22;2125;51.436;14.138;2022-08-19T12:53:32;24.30;80.80
4223;DHT22;2125;51.436;14.138;2022-08-19T12:55:59;24.20;80.80
4223;DHT22;2125;51.436;14.138;2022-08-19T12:58:26;24.10;81.10
4223;DHT22;2125;51.436;14.138;2022-08-19T13:00:53;24.20;81.20
4223;DHT22;2125;51.436;14.138;2022-08-19T13:03:21;24.20;81.30
4223;DHT22;2125;51.436;14.138;2022-08-19T13:05:54;24.20;81.00
4223;DHT22;2125;51.436;14.138;2022-08-19T13:08:21;24.30;80.70
4223;DHT22;2125;51.436;14.138;2022-08-19T13:10:47;24.30;81.10
4223;DHT22;2125;51.436;14.138;2022-08-19T13:13:14;24.20;81.20
4223;DHT22;2125;51.436;14.138;2022-08-19T13:15:42;24.00;81.60
4223;DHT22;2125;51.436;14.138;2022-08-19T13:18:11;23.70;82.50
4223;DHT22;2125;51.436;14.138;2022-08-19T13:20:39;23.50;83.00
4223;DHT22;2125;51.436;14.138;2022-08-19T13:23:07;23.30;83.30
4223;DHT22;2125;51.436;14.138;2022-08-19T13:25:33;23.20;83.80
4223;DHT22;2125;51.436;14.138;2022-08-19T13:28:02;23.30;83.80
4223;DHT22;2125;51.436;14.138;2022-08-19T13:30:28;23.20;83.50
4223;DHT22;2125;51.436;14.138;2022-08-19T13:33:13;23.10;83.80
4223;DHT22;2125;51.436;14.138;2022-08-19T13:35:44;23.00;84.00
4223;DHT22;2125;51.436;14.138;2022-08-19T13:38:11;23.00;84.30
4223;DHT22;2125;51.436;14.138;2022-08-19T13:40:39;23.00;84.30
4223;DHT22;2125;51.436;14.138;2022-08-19T13:43:06;23.00;84.30
4223;DHT22;2125;51.436;14.138;2022-08-19T13:45:34;23.00;84.20
4223;DHT22;2125;51.436;14.138;2022-08-19T13:48:06;22.90;84.40
4223;DHT22;2125;51.436;14.138;2022-08-19T13:50:35;22.90;84.50
4223;DHT22;2125;51.436;14.138;2022-08-19T13:53:05;22.80;84.50
4223;DHT22;2125;51.436;14.138;2022-08-19T13:55:33;22.90;84.60
4223;DHT22;2125;51.436;14.138;2022-08-19T13:58:00;23.00;84.50
4223;DHT22;2125;51.436;14.138;2022-08-19T14:00:30;23.00;84.30
4223;DHT22;2125;51.436;14.138;2022-08-19T14:02:57;23.00;84.50
4223;DHT22;2125;51.436;14.138;2022-08-19T14:05:27;23.00;84.30
4223;DHT22;2125;51.436;14.138;2022-08-19T14:07:55;23.00;84.10
4223;DHT22;2125;51.436;14.138;2022-08-19T14:10:24;23.00;84.40
4223;DHT22;2125;51.436;14.138;2022-08-19T14:12:53;23.10;84.00
4223;DHT22;2125;51.436;14.138;2022-08-19T14:15:20;23.10;84.10
4223;DHT22;2125;51.436;14.138;2022-08-19T14:17:48;22.90;84.20
4223;DHT22;2125;51.436;14.138;2022-08-19T14:20:16;22.90;84.40
4223;DHT22;2125;51.436;14.138;2022-08-19T14:22:44;23.00;84.40
4223;DHT22;2125;51.436;14.138;2022-08-19T14:25:12;23.00;84.30
4223;DHT22;2125;51.436;14.138;2022-08-19T14:27:41;22.90;84.40
4223;DHT22;2125;51.436;14.138;2022-08-19T14:30:11;22.90;84.40
4223;DHT22;2125;51.436;14.138;2022-08-19T14:32:39;22.90;84.40
4223;DHT22;2125;51.436;14.138;2022-08-19T14:35:09;22.90;84.40
4223;DHT22;2125;51.436;14.138;2022-08-19T14:37:37;22.90;84.50
4223;DHT22;2125;51.436;14.138;2022-08-19T14:40:04;22.90;84.30
4223;DHT22;2125;51.436;14.138;2022-08-19T14:42:31;23.00;84.40
4223;DHT22;2125;51.436;14.138;2022-08-19T14:45:00;23.00;84.20
4223;DHT22;2125;51.436;14.138;2022-08-19T14:47:27;23.00;84.40
4223;DHT22;2125;51.436;14.138;2022-08-19T14:49:53;23.10;84.10
4223;DHT22;2125;51.436;14.138;2022-08-19T14:52:20;23.10;84.00
4223;DHT22;2125;51.436;14.138;2022-08-19T14:54:47;23.30;84.20
4223;DHT22;2125;51.436;14.138;2022-08-19T14:57:14;23.30;83.90
4223;DHT22;2125;51.436;14.138;2022-08-19T14:59:41;23.40;83.80
4223;DHT22;2125;51.436;14.138;2022-08-19T15:02:09;23.40;83.50
4223;DHT22;2125;51.436;14.138;2022-08-19T15:04:35;23.50;83.30
4223;DHT22;2125;51.436;14.138;2022-08-19T15:07:02;23.40;83.20
4223;DHT22;2125;51.436;14.138;2022-08-19T15:09:29;23.30;83.60
4223;DHT22;2125;51.436;14.138;2022-08-19T15:11:56;23.30;83.70
4223;DHT22;2125;51.436;14.138;2022-08-19T15:14:24;23.10;83.90
4223;DHT22;2125;51.436;14.138;2022-08-19T15:16:51;23.20;84.10
4223;DHT22;2125;51.436;14.138;2022-08-19T15:19:19;23.30;83.80
4223;DHT22;2125;51.436;14.138;2022-08-19T15:21:46;23.30;83.70
4223;DHT22;2125;51.436;14.138;2022-08-19T15:24:14;23.30;83.20
4223;DHT22;2125;51.436;14.138;2022-08-19T15:26:41;23.30;83.60
4223;DHT22;2125;51.436;14.138;2022-08-19T15:29:08;23.20;83.70
4223;DHT22;2125;51.436;14.138;2022-08-19T15:31:35;23.20;83.70
4223;DHT22;2125;51.436;14.138;2022-08-19T15:34:02;23.20;83.60
4223;DHT22;2125;51.436;14.138;2022-08-19T15:36:32;23.20;83.60
4223;DHT22;2125;51.436;14.138;2022-08-19T15:38:59;23.00;83.70
4223;DHT22;2125;51.436;14.138;2022-08-19T15:41:28;23.00;84.00
4223;DHT22;2125;51.436;14.138;2022-08-19T15:43:58;23.00;83.80
4223;DHT22;2125;51.436;14.138;2022-08-19T15:46:27;22.90;83.90
4223;DHT22;2125;51.436;14.138;2022-08-19T15:48:55;22.90;84.00
4223;DHT22;2125;51.436;14.138;2022-08-19T15:51:22;22.90;84.20
4223;DHT22;2125;51.436;14.138;2022-08-19T15:53:50;22.80;84.30